createdAt,value
2019-05-30T00:00:56.491Z,19.40
2019-05-30T00:03:25.793Z,19.40
2019-05-30T00:05:56.211Z,19.40
2019-05-30T00:08:25.662Z,19.40
2019-05-30T00:10:54.777Z,19.40
2019-05-30T00:13:24.029Z,19.30
2019-05-30T00:15:54.502Z,19.30
2019-05-30T00:18:24.169Z,19.30
2019-05-30T00:20:54.596Z,19.30
2019-05-30T00:23:23.914Z,19.30
2019-05-30T00:25:53.433Z,19.30
2019-05-30T00:28:22.720Z,19.30
2019-05-30T00:30:51.734Z,19.30
2019-05-30T00:33:20.929Z,19.30
2019-05-30T00:35:50.117Z,19.30
2019-05-30T00:38:19.191Z,19.30
2019-05-30T00:40:48.621Z,19.30
2019-05-30T00:43:17.595Z,19.30
2019-05-30T00:45:46.777Z,19.30
2019-05-30T00:48:15.929Z,19.30
2019-05-30T00:50:45.149Z,19.30
2019-05-30T00:53:14.474Z,19.30
2019-05-30T00:55:43.691Z,19.30
2019-05-30T00:58:12.915Z,19.20
2019-05-30T01:00:44.206Z,19.30
2019-05-30T01:03:12.925Z,19.30
2019-05-30T01:05:42.410Z,19.20
2019-05-30T01:08:11.584Z,19.20
2019-05-30T01:10:40.812Z,19.20
2019-05-30T01:13:10.017Z,19.20
2019-05-30T01:15:39.546Z,19.20
2019-05-30T01:18:08.755Z,19.20
2019-05-30T01:20:37.924Z,19.20
2019-05-30T01:23:07.546Z,19.30
2019-05-30T01:25:37.377Z,19.20
2019-05-30T01:28:07.727Z,19.20
2019-05-30T01:30:37.163Z,19.20
2019-05-30T01:33:06.360Z,19.20
2019-05-30T01:35:35.564Z,19.20
2019-05-30T01:38:05.862Z,19.20
2019-05-30T01:40:35.235Z,19.20
2019-05-30T01:43:04.304Z,19.20
2019-05-30T01:45:33.468Z,19.20
2019-05-30T01:48:04.553Z,19.20
2019-05-30T01:50:34.021Z,19.20
2019-05-30T01:53:04.548Z,19.20
2019-05-30T01:55:33.871Z,19.20
2019-05-30T01:58:03.218Z,19.20
2019-05-30T02:00:37.814Z,19.20
2019-05-30T02:03:07.190Z,19.20
2019-05-30T02:05:36.337Z,19.10
2019-05-30T02:08:05.697Z,19.20
2019-05-30T02:10:35.487Z,19.10
2019-05-30T02:13:05.577Z,19.10
2019-05-30T02:15:34.974Z,19.10
2019-05-30T02:18:04.136Z,19.10
2019-05-30T02:20:33.389Z,19.10
2019-05-30T02:23:04.021Z,19.10
2019-05-30T02:25:33.462Z,19.10
2019-05-30T02:28:02.634Z,19.10
2019-05-30T02:30:31.878Z,19.10
2019-05-30T02:33:02.804Z,19.10
2019-05-30T02:35:31.924Z,19.10
2019-05-30T02:38:01.014Z,19.00
2019-05-30T02:40:30.184Z,19.10
2019-05-30T02:43:01.034Z,19.00
2019-05-30T02:45:30.108Z,19.00
2019-05-30T02:48:01.126Z,19.10
2019-05-30T02:50:30.427Z,19.00
2019-05-30T02:53:01.167Z,19.00
2019-05-30T02:55:30.500Z,19.00
2019-05-30T02:58:01.212Z,19.00
2019-05-30T03:00:35.405Z,19.10
2019-05-30T03:03:06.568Z,19.00
2019-05-30T03:05:35.495Z,19.00
2019-05-30T03:08:06.522Z,19.00
2019-05-30T03:10:35.425Z,19.00
2019-05-30T03:13:06.314Z,19.00
2019-05-30T03:15:35.376Z,19.00
2019-05-30T03:18:05.329Z,19.00
2019-05-30T03:20:35.334Z,19.00
2019-05-30T03:23:05.783Z,19.00
2019-05-30T03:25:35.301Z,19.00
2019-05-30T03:28:05.322Z,19.00
2019-05-30T03:30:35.258Z,19.00
2019-05-30T03:33:17.126Z,19.00
2019-05-30T03:35:41.845Z,19.00
2019-05-30T03:38:07.920Z,19.00
2019-05-30T03:40:37.237Z,18.90
2019-05-30T03:43:08.716Z,19.00
2019-05-30T03:45:37.519Z,19.00
2019-05-30T03:48:09.154Z,18.90
2019-05-30T03:50:37.858Z,18.90
2019-05-30T03:53:09.881Z,18.90
2019-05-30T03:55:38.269Z,18.90
2019-05-30T03:58:16.453Z,18.90
2019-05-30T04:00:51.426Z,18.90
2019-05-30T04:03:37.519Z,18.90
2019-05-30T04:06:11.533Z,18.90
2019-05-30T04:08:40.308Z,18.90
2019-05-30T04:11:11.975Z,18.90
2019-05-30T04:13:50.797Z,18.90
2019-05-30T04:16:19.993Z,18.90
2019-05-30T04:18:49.094Z,18.90
2019-05-30T04:21:21.212Z,18.90
2019-05-30T04:23:48.924Z,18.90
2019-05-30T04:26:18.481Z,18.90
2019-05-30T04:28:47.658Z,18.90
2019-05-30T04:31:17.680Z,18.90
2019-05-30T04:33:47.658Z,18.90
2019-05-30T04:36:17.166Z,18.90
2019-05-30T04:38:47.724Z,18.90
2019-05-30T04:41:19.143Z,18.90
2019-05-30T04:43:47.722Z,18.90
2019-05-30T04:46:19.120Z,18.90
2019-05-30T04:48:47.740Z,18.90
2019-05-30T04:51:19.609Z,18.90
2019-05-30T04:53:48.169Z,18.90
2019-05-30T04:56:19.169Z,18.90
2019-05-30T04:58:48.177Z,18.90
2019-05-30T05:01:18.214Z,18.90
2019-05-30T05:03:48.183Z,18.90
2019-05-30T05:06:17.872Z,18.90
2019-05-30T05:08:47.137Z,18.90
2019-05-30T05:11:19.309Z,18.90
2019-05-30T05:13:47.143Z,18.90
2019-05-30T05:16:25.998Z,18.90
2019-05-30T05:18:47.130Z,18.90
2019-05-30T05:21:16.901Z,18.90
2019-05-30T05:23:46.149Z,18.90
2019-05-30T05:26:15.449Z,18.90
2019-05-30T05:28:44.884Z,18.90
2019-05-30T05:31:14.460Z,18.90
2019-05-30T05:33:56.302Z,18.90
2019-05-30T05:36:14.855Z,18.90
2019-05-30T05:38:44.239Z,18.90
2019-05-30T05:41:13.410Z,18.90
2019-05-30T05:43:42.632Z,18.90
2019-05-30T05:46:11.844Z,18.90
2019-05-30T05:48:40.995Z,18.90
2019-05-30T05:51:10.197Z,18.90
2019-05-30T05:53:39.779Z,18.90
2019-05-30T05:56:08.970Z,18.90
2019-05-30T05:58:38.162Z,18.90
2019-05-30T06:01:07.378Z,18.90
2019-05-30T06:03:36.949Z,18.90
2019-05-30T06:06:06.120Z,18.90
2019-05-30T06:08:35.284Z,18.90
2019-05-30T06:11:04.500Z,18.90
2019-05-30T06:13:33.689Z,18.90
2019-05-30T06:16:02.857Z,18.90
2019-05-30T06:18:32.060Z,18.90
2019-05-30T06:21:01.101Z,18.80
2019-05-30T06:23:30.334Z,18.80
2019-05-30T06:25:59.594Z,18.80
2019-05-30T06:28:30.626Z,18.70
2019-05-30T06:31:15.858Z,18.70
2019-05-30T06:34:03.934Z,18.70
2019-05-30T06:36:33.100Z,18.60
2019-05-30T06:39:02.347Z,18.60
2019-05-30T06:41:31.536Z,18.70
2019-05-30T06:44:05.020Z,18.70
2019-05-30T06:46:35.700Z,18.70
2019-05-30T06:49:05.608Z,18.70
2019-05-30T06:51:35.220Z,18.60
2019-05-30T06:54:04.456Z,18.60
2019-05-30T06:56:33.688Z,18.60
2019-05-30T06:59:04.551Z,18.60
2019-05-30T07:01:36.858Z,18.60
2019-05-30T07:04:11.319Z,18.60
2019-05-30T07:06:41.067Z,18.60
2019-05-30T07:09:10.656Z,18.60
2019-05-30T07:11:39.854Z,18.60
2019-05-30T07:14:09.316Z,18.60
2019-05-30T07:16:38.545Z,18.60
2019-05-30T07:19:07.717Z,18.60
2019-05-30T07:21:36.942Z,18.60
2019-05-30T07:24:06.217Z,18.60
2019-05-30T07:26:35.333Z,18.50
2019-05-30T07:29:04.543Z,18.50
2019-05-30T07:31:34.386Z,18.60
2019-05-30T07:34:03.681Z,18.50
2019-05-30T07:36:32.862Z,18.50
2019-05-30T07:39:02.070Z,18.50
2019-05-30T07:41:31.251Z,18.40
2019-05-30T07:44:00.455Z,18.40
2019-05-30T07:46:29.626Z,18.40
2019-05-30T07:48:58.822Z,18.40
2019-05-30T07:51:28.470Z,18.40
2019-05-30T07:53:57.782Z,18.30
2019-05-30T07:56:26.958Z,18.30
2019-05-30T07:58:56.129Z,18.30
2019-05-30T08:01:26.333Z,18.30
2019-05-30T08:03:55.556Z,18.30
2019-05-30T08:06:24.780Z,18.20
2019-05-30T08:08:53.991Z,18.30
2019-05-30T08:11:23.228Z,18.30
2019-05-30T08:13:52.403Z,18.30
2019-05-30T08:16:21.612Z,18.20
2019-05-30T08:18:50.766Z,18.20
2019-05-30T08:21:19.864Z,18.20
2019-05-30T08:23:49.041Z,18.20
2019-05-30T08:26:18.492Z,18.30
2019-05-30T08:28:47.998Z,18.30
2019-05-30T08:31:17.249Z,18.30
2019-05-30T08:33:47.554Z,18.30
2019-05-30T08:36:17.023Z,18.30
2019-05-30T08:38:48.274Z,18.30
2019-05-30T08:41:17.053Z,18.40
2019-05-30T08:43:46.228Z,18.30
2019-05-30T08:46:15.333Z,18.30
2019-05-30T08:48:44.506Z,18.30
2019-05-30T08:51:13.705Z,18.30
2019-05-30T08:53:42.816Z,18.30
2019-05-30T08:56:12.183Z,18.30
2019-05-30T08:58:41.834Z,18.30
2019-05-30T09:01:11.164Z,18.40
2019-05-30T09:03:40.298Z,18.30
2019-05-30T09:06:16.751Z,18.30
2019-05-30T09:08:46.718Z,18.30
2019-05-30T09:11:22.489Z,18.40
2019-05-30T09:13:56.794Z,18.30
2019-05-30T09:16:27.731Z,18.40
2019-05-30T09:18:56.950Z,18.40
2019-05-30T09:21:26.181Z,18.50
2019-05-30T09:24:00.305Z,18.50
2019-05-30T09:26:26.228Z,18.70
2019-05-30T09:28:55.352Z,18.80
2019-05-30T09:31:24.532Z,18.80
2019-05-30T09:33:53.882Z,18.80
2019-05-30T09:36:23.203Z,18.70
2019-05-30T09:38:52.396Z,18.80
2019-05-30T09:41:21.553Z,18.80
2019-05-30T09:43:50.766Z,18.90
2019-05-30T09:46:19.862Z,18.90
2019-05-30T09:48:49.053Z,19.00
2019-05-30T09:51:18.243Z,19.00
2019-05-30T09:53:48.292Z,18.90
2019-05-30T09:56:17.793Z,18.90
2019-05-30T09:58:47.749Z,18.90
2019-05-30T10:01:16.945Z,19.00
2019-05-30T10:03:46.573Z,19.00
2019-05-30T10:06:28.448Z,18.90
2019-05-30T10:08:47.876Z,19.00
2019-05-30T10:11:17.562Z,18.90
2019-05-30T10:13:47.959Z,18.90
2019-05-30T10:16:17.704Z,18.90
2019-05-30T10:18:47.371Z,18.90
2019-05-30T10:21:17.812Z,18.80
2019-05-30T10:23:47.573Z,18.80
2019-05-30T10:26:17.382Z,18.80
2019-05-30T10:28:47.753Z,18.80
2019-05-30T10:31:17.269Z,18.80
2019-05-30T10:33:47.550Z,18.70
2019-05-30T10:36:19.975Z,18.80
2019-05-30T10:38:49.072Z,18.80
2019-05-30T10:41:19.123Z,18.80
2019-05-30T10:43:49.093Z,18.80
2019-05-30T10:46:18.297Z,18.80
2019-05-30T10:48:49.091Z,18.80
2019-05-30T10:51:19.002Z,18.70
2019-05-30T10:53:49.013Z,18.70
2019-05-30T10:56:18.949Z,18.70
2019-05-30T10:58:48.339Z,18.70
2019-05-30T11:01:17.749Z,18.70
2019-05-30T11:03:47.567Z,18.70
2019-05-30T11:06:42.348Z,18.70
2019-05-30T11:09:11.568Z,18.70
2019-05-30T11:11:40.744Z,18.80
2019-05-30T11:14:09.921Z,18.80
2019-05-30T11:16:39.030Z,18.90
2019-05-30T11:19:08.287Z,18.90
2019-05-30T11:21:37.581Z,19.00
2019-05-30T11:24:06.780Z,18.90
2019-05-30T11:26:35.890Z,18.90
2019-05-30T11:29:05.201Z,18.90
2019-05-30T11:31:34.383Z,18.90
2019-05-30T11:34:03.544Z,19.00
2019-05-30T11:36:32.784Z,18.90
2019-05-30T11:39:01.970Z,18.90
2019-05-30T11:41:31.160Z,18.90
2019-05-30T11:44:03.954Z,19.00
2019-05-30T11:46:31.178Z,19.00
2019-05-30T11:49:00.318Z,19.00
2019-05-30T11:51:29.597Z,19.00
2019-05-30T11:53:58.773Z,19.00
2019-05-30T11:56:28.266Z,19.00
2019-05-30T11:58:58.091Z,19.00
2019-05-30T12:01:27.380Z,19.00
2019-05-30T12:03:56.598Z,19.00
2019-05-30T12:06:25.820Z,19.00
2019-05-30T12:08:55.056Z,19.00
2019-05-30T12:11:24.585Z,19.00
2019-05-30T12:13:53.686Z,19.00
2019-05-30T12:16:22.877Z,19.00
2019-05-30T12:18:53.852Z,19.00
2019-05-30T12:21:23.129Z,19.00
2019-05-30T12:23:52.299Z,19.00
2019-05-30T12:26:21.641Z,19.00
2019-05-30T12:28:51.947Z,19.00
2019-05-30T12:31:21.501Z,19.10
2019-05-30T12:33:52.153Z,19.10
2019-05-30T12:36:21.572Z,19.10
2019-05-30T12:38:50.816Z,19.10
2019-05-30T12:41:20.065Z,19.10
2019-05-30T12:43:49.153Z,19.10
2019-05-30T12:46:18.359Z,19.10
2019-05-30T12:48:47.533Z,19.10
2019-05-30T12:51:17.272Z,19.10
2019-05-30T12:53:46.533Z,19.10
2019-05-30T12:56:15.729Z,19.10
2019-05-30T12:58:44.824Z,19.10
2019-05-30T13:01:14.128Z,19.10
2019-05-30T13:03:43.361Z,19.10
2019-05-30T13:06:12.972Z,19.10
2019-05-30T13:08:42.070Z,19.10
2019-05-30T13:11:11.158Z,19.10
2019-05-30T13:13:40.329Z,19.10
2019-05-30T13:16:11.957Z,19.10
2019-05-30T13:18:41.149Z,19.20
2019-05-30T13:21:10.353Z,19.10
2019-05-30T13:23:39.587Z,19.10
2019-05-30T13:26:08.813Z,19.20
2019-05-30T13:28:37.930Z,19.30
2019-05-30T13:31:07.195Z,19.40
2019-05-30T13:33:38.533Z,19.40
2019-05-30T13:36:07.313Z,19.40
2019-05-30T13:38:36.434Z,19.50
2019-05-30T13:41:05.664Z,19.60
2019-05-30T13:43:35.076Z,19.60
2019-05-30T13:46:04.535Z,19.60
2019-05-30T13:48:33.755Z,19.60
2019-05-30T13:51:02.950Z,19.60
2019-05-30T13:53:32.302Z,19.50
2019-05-30T13:56:01.506Z,19.50
2019-05-30T13:58:30.659Z,19.50
2019-05-30T14:01:01.020Z,19.50
2019-05-30T14:03:30.988Z,19.50
2019-05-30T14:06:00.213Z,19.60
2019-05-30T14:08:41.172Z,19.60
2019-05-30T14:11:00.552Z,19.60
2019-05-30T14:13:30.244Z,19.60
2019-05-30T14:16:00.774Z,19.60
2019-05-30T14:18:30.341Z,19.60
2019-05-30T14:21:01.674Z,19.60
2019-05-30T14:23:30.400Z,19.60
2019-05-30T14:25:59.524Z,19.60
2019-05-30T14:28:28.627Z,19.60
2019-05-30T14:30:57.844Z,19.50
2019-05-30T14:33:27.024Z,19.60
2019-05-30T14:35:56.237Z,19.60
2019-05-30T14:38:25.406Z,19.60
2019-05-30T14:40:54.662Z,19.60
2019-05-30T14:43:23.851Z,19.70
2019-05-30T14:45:53.052Z,19.70
2019-05-30T14:48:22.208Z,19.70
2019-05-30T14:50:51.384Z,19.70
2019-05-30T14:53:20.527Z,19.70
2019-05-30T14:55:49.737Z,19.70
2019-05-30T14:58:18.869Z,19.80
2019-05-30T15:00:47.936Z,19.80
2019-05-30T15:03:17.609Z,19.80
2019-05-30T15:05:46.950Z,19.80
2019-05-30T15:08:16.895Z,19.80
2019-05-30T15:10:46.087Z,19.80
2019-05-30T15:13:15.775Z,19.80
2019-05-30T15:15:45.036Z,19.90
2019-05-30T15:18:14.250Z,19.90
2019-05-30T15:20:43.478Z,19.90
2019-05-30T15:23:13.722Z,19.90
2019-05-30T15:25:43.569Z,19.90
2019-05-30T15:28:12.746Z,19.90
2019-05-30T15:30:41.908Z,19.80
2019-05-30T15:33:12.549Z,19.90
2019-05-30T15:35:41.977Z,19.90
2019-05-30T15:38:11.083Z,19.80
2019-05-30T15:40:41.441Z,19.80
2019-05-30T15:43:11.375Z,19.80
2019-05-30T15:45:40.567Z,19.80
2019-05-30T15:48:10.319Z,19.80
2019-05-30T15:50:39.585Z,19.80
2019-05-30T15:53:08.949Z,19.80
2019-05-30T15:55:38.107Z,19.80
2019-05-30T15:58:07.264Z,19.80
2019-05-30T16:00:37.162Z,19.80
2019-05-30T16:03:06.448Z,19.80
2019-05-30T16:05:35.543Z,19.80
2019-05-30T16:08:04.729Z,19.90
2019-05-30T16:10:36.624Z,19.90
2019-05-30T16:13:04.716Z,19.90
2019-05-30T16:15:33.942Z,19.90
2019-05-30T16:18:03.672Z,19.60
2019-05-30T16:20:32.868Z,19.80
2019-05-30T16:23:02.092Z,19.80
2019-05-30T16:25:31.308Z,19.80
2019-05-30T16:28:00.535Z,19.70
2019-05-30T16:30:29.788Z,19.70
2019-05-30T16:32:58.930Z,19.70
2019-05-30T16:35:28.706Z,19.70
2019-05-30T16:37:57.801Z,19.70
2019-05-30T16:40:26.897Z,19.70
2019-05-30T16:42:56.065Z,19.70
2019-05-30T16:45:25.405Z,19.70
2019-05-30T16:47:54.912Z,19.70
2019-05-30T16:50:24.430Z,19.70
2019-05-30T16:52:53.567Z,19.70
2019-05-30T16:55:23.431Z,19.70
2019-05-30T16:57:52.812Z,19.70
2019-05-30T17:00:22.036Z,19.70
2019-05-30T17:02:51.093Z,19.60
2019-05-30T17:05:20.315Z,19.60
2019-05-30T17:07:49.391Z,19.60
2019-05-30T17:10:26.683Z,19.60
2019-05-30T17:12:49.716Z,19.60
2019-05-30T17:15:20.006Z,19.60
2019-05-30T17:17:49.376Z,19.60
2019-05-30T17:20:20.545Z,19.60
2019-05-30T17:22:49.990Z,19.60
2019-05-30T17:25:19.138Z,19.60
2019-05-30T17:27:48.264Z,19.60
2019-05-30T17:30:17.530Z,19.60
2019-05-30T17:32:46.685Z,19.60
2019-05-30T17:35:15.877Z,19.60
2019-05-30T17:37:45.060Z,19.50
2019-05-30T17:40:14.238Z,19.50
2019-05-30T17:42:43.780Z,19.50
2019-05-30T17:45:12.997Z,19.50
2019-05-30T17:47:42.208Z,19.40
2019-05-30T17:50:12.922Z,19.50
2019-05-30T17:52:42.429Z,19.50
2019-05-30T17:55:11.612Z,19.40
2019-05-30T17:57:40.805Z,19.40
2019-05-30T18:00:10.334Z,19.40
2019-05-30T18:02:39.811Z,19.40
2019-05-30T18:05:10.146Z,19.40
2019-05-30T18:07:40.803Z,19.40
2019-05-30T18:10:13.778Z,19.40
2019-05-30T18:12:43.051Z,19.40
2019-05-30T18:15:12.264Z,19.40
2019-05-30T18:17:41.390Z,19.40
2019-05-30T18:20:11.832Z,19.40
2019-05-30T18:22:40.977Z,19.40
2019-05-30T18:25:11.437Z,19.40
2019-05-30T18:27:40.861Z,19.40
2019-05-30T18:30:10.030Z,19.40
2019-05-30T18:32:42.276Z,19.40
2019-05-30T18:35:11.739Z,19.40
2019-05-30T18:37:40.982Z,19.40
2019-05-30T18:40:15.331Z,19.40
2019-05-30T18:42:46.621Z,19.40
2019-05-30T18:45:18.882Z,19.40
2019-05-30T18:47:48.442Z,19.40
2019-05-30T18:50:17.998Z,19.40
2019-05-30T18:52:48.793Z,19.40
2019-05-30T18:55:19.846Z,19.40
2019-05-30T18:57:56.209Z,19.40
2019-05-30T19:00:27.638Z,19.40
2019-05-30T19:02:56.891Z,19.40
2019-05-30T19:05:26.587Z,19.40
2019-05-30T19:07:56.175Z,19.40
2019-05-30T19:10:29.987Z,19.40
2019-05-30T19:12:59.345Z,19.40
2019-05-30T19:15:30.108Z,19.40
2019-05-30T19:18:02.097Z,19.40
2019-05-30T19:20:31.849Z,19.40
2019-05-30T19:23:01.107Z,19.40
2019-05-30T19:25:32.421Z,19.40
2019-05-30T19:28:01.446Z,19.40
2019-05-30T19:30:30.685Z,19.40
2019-05-30T19:32:59.860Z,19.40
2019-05-30T19:35:29.079Z,19.40
2019-05-30T19:37:58.213Z,19.40
2019-05-30T19:40:27.506Z,19.40
2019-05-30T19:42:56.710Z,19.40
2019-05-30T19:45:25.880Z,19.40
2019-05-30T19:47:55.309Z,19.40
2019-05-30T19:50:24.473Z,19.40
2019-05-30T19:52:53.661Z,19.50
2019-05-30T19:55:43.878Z,19.50
2019-05-30T19:58:35.543Z,19.50
2019-05-30T20:04:59.060Z,19.50
2019-05-30T20:07:36.711Z,19.50
2019-05-30T20:13:35.021Z,19.50
2019-05-30T20:16:22.175Z,19.60
2019-05-30T20:18:51.356Z,19.60
2019-05-30T20:21:27.801Z,19.60
2019-05-30T20:23:59.278Z,19.60
2019-05-30T20:26:26.113Z,19.60
2019-05-30T20:28:55.229Z,19.60
2019-05-30T20:31:24.534Z,19.60
2019-05-30T20:33:53.734Z,19.60
2019-05-30T20:36:22.871Z,19.60
2019-05-30T20:38:52.081Z,19.60
2019-05-30T20:41:21.349Z,19.60
2019-05-30T20:43:52.587Z,19.60
2019-05-30T20:46:23.505Z,19.60
2019-05-30T20:48:52.932Z,19.60
2019-05-30T20:51:22.432Z,19.60
2019-05-30T20:53:54.617Z,19.60
2019-05-30T20:56:22.435Z,19.60
2019-05-30T20:58:51.627Z,19.60
2019-05-30T21:01:20.809Z,19.60
2019-05-30T21:03:50.029Z,19.60
2019-05-30T21:06:19.228Z,19.60
2019-05-30T21:08:48.405Z,19.60
2019-05-30T21:11:17.625Z,19.60
2019-05-30T21:13:46.843Z,19.60
2019-05-30T21:16:16.936Z,19.70
2019-05-30T21:18:46.662Z,19.70
2019-05-30T21:21:15.905Z,19.60
2019-05-30T21:23:45.099Z,19.60
2019-05-30T21:26:14.886Z,19.60
2019-05-30T21:28:45.350Z,19.60
2019-05-30T21:31:16.218Z,19.70
2019-05-30T21:33:46.048Z,19.60
2019-05-30T21:36:15.460Z,19.60
2019-05-30T21:38:44.784Z,19.70
2019-05-30T21:41:15.256Z,19.70
2019-05-30T21:43:49.293Z,19.60
2019-05-30T21:46:18.475Z,19.60
2019-05-30T21:48:47.579Z,19.70
2019-05-30T21:51:16.762Z,19.70
2019-05-30T21:53:45.923Z,19.70
2019-05-30T21:56:15.095Z,19.70
2019-05-30T21:58:44.274Z,19.70
2019-05-30T22:01:33.342Z,19.70
2019-05-30T22:04:02.513Z,19.70
2019-05-30T22:06:31.653Z,19.70
2019-05-30T22:09:03.284Z,19.70
2019-05-30T22:11:31.589Z,19.60
2019-05-30T22:14:00.720Z,19.60
2019-05-30T22:16:30.242Z,19.60
2019-05-30T22:18:59.415Z,19.70
2019-05-30T22:21:28.545Z,19.70
2019-05-30T22:23:57.845Z,19.60
2019-05-30T22:26:27.072Z,19.70
2019-05-30T22:28:56.300Z,19.70
2019-05-30T22:31:25.369Z,19.70
2019-05-30T22:33:54.545Z,19.70
2019-05-30T22:36:23.705Z,19.70
2019-05-30T22:38:53.259Z,19.70
2019-05-30T22:41:22.532Z,19.70
2019-05-30T22:43:52.663Z,19.70
2019-05-30T22:46:22.131Z,19.70
2019-05-30T22:48:51.308Z,19.70
2019-05-30T22:51:20.413Z,19.70
2019-05-30T22:53:49.521Z,19.70
2019-05-30T22:56:18.639Z,19.70
2019-05-30T22:58:47.920Z,19.70
2019-05-30T23:01:17.105Z,19.70
2019-05-30T23:03:47.154Z,19.70
2019-05-30T23:06:16.382Z,19.70
2019-05-30T23:08:46.377Z,19.70
2019-05-30T23:11:15.625Z,19.70
2019-05-30T23:13:45.716Z,19.70
2019-05-30T23:16:15.383Z,19.70
2019-05-30T23:18:44.914Z,19.70
2019-05-30T23:21:14.763Z,19.70
2019-05-30T23:23:43.928Z,19.70
2019-05-30T23:26:13.113Z,19.70
2019-05-30T23:28:42.261Z,19.70
2019-05-30T23:31:11.434Z,19.70
2019-05-30T23:33:40.622Z,19.70
2019-05-30T23:36:10.120Z,19.70
2019-05-30T23:38:39.296Z,19.70
2019-05-30T23:41:08.368Z,19.70
2019-05-30T23:43:37.443Z,19.70
2019-05-30T23:46:06.833Z,19.70
2019-05-30T23:48:35.920Z,19.70
2019-05-30T23:51:05.953Z,19.70
2019-05-30T23:53:35.171Z,19.70
2019-05-30T23:56:04.231Z,19.70
2019-05-30T23:58:33.317Z,19.70
